sensor_id;sensor_type;location;lat;lon;timestamp;P1;durP1;ratioP1;P2;durP2;ratioP2
20114;SDS011;10218;42.874;25.320;2023-03-29T00:00:33;5.33;;;2.70;;
20114;SDS011;10218;42.874;25.320;2023-03-29T00:03:01;3.80;;;2.50;;
20114;SDS011;10218;42.874;25.320;2023-03-29T00:05:29;5.87;;;2.70;;
20114;SDS011;10218;42.874;25.320;2023-03-29T00:07:59;3.10;;;2.20;;
20114;SDS011;10218;42.874;25.320;2023-03-29T00:10:30;5.13;;;2.87;;
20114;SDS011;10218;42.874;25.320;2023-03-29T00:12:58;4.13;;;2.60;;
20114;SDS011;10218;42.874;25.320;2023-03-29T00:15:25;3.57;;;2.37;;
20114;SDS011;10218;42.874;25.320;2023-03-29T00:17:52;3.80;;;2.50;;
20114;SDS011;10218;42.874;25.320;2023-03-29T00:20:19;6.97;;;2.47;;
20114;SDS011;10218;42.874;25.320;2023-03-29T00:22:46;4.47;;;2.43;;
20114;SDS011;10218;42.874;25.320;2023-03-29T00:25:14;5.23;;;2.40;;
20114;SDS011;10218;42.874;25.320;2023-03-29T00:27:41;5.97;;;2.50;;
20114;SDS011;10218;42.874;25.320;2023-03-29T00:30:08;4.10;;;2.23;;
20114;SDS011;10218;42.874;25.320;2023-03-29T00:32:36;8.50;;;2.43;;
20114;SDS011;10218;42.874;25.320;2023-03-29T00:35:04;5.87;;;2.50;;
20114;SDS011;10218;42.874;25.320;2023-03-29T00:37:31;3.97;;;2.70;;
20114;SDS011;10218;42.874;25.320;2023-03-29T00:39:59;6.57;;;2.40;;
20114;SDS011;10218;42.874;25.320;2023-03-29T00:42:26;6.53;;;2.40;;
20114;SDS011;10218;42.874;25.320;2023-03-29T00:50:19;5.93;;;2.70;;
20114;SDS011;10218;42.874;25.320;2023-03-29T00:52:54;5.30;;;2.50;;
20114;SDS011;10218;42.874;25.320;2023-03-29T00:55:52;4.40;;;2.40;;
20114;SDS011;10218;42.874;25.320;2023-03-29T01:01:31;5.17;;;2.20;;
20114;SDS011;10218;42.874;25.320;2023-03-29T01:04:15;4.27;;;2.93;;
20114;SDS011;10218;42.874;25.320;2023-03-29T01:06:45;5.33;;;2.93;;
20114;SDS011;10218;42.874;25.320;2023-03-29T01:09:20;5.47;;;2.70;;
20114;SDS011;10218;42.874;25.320;2023-03-29T01:11:53;3.83;;;2.63;;
20114;SDS011;10218;42.874;25.320;2023-03-29T01:17:06;7.17;;;2.73;;
20114;SDS011;10218;42.874;25.320;2023-03-29T01:19:37;3.67;;;2.70;;
20114;SDS011;10218;42.874;25.320;2023-03-29T01:32:39;5.93;;;3.17;;
20114;SDS011;10218;42.874;25.320;2023-03-29T01:35:18;4.13;;;2.77;;
20114;SDS011;10218;42.874;25.320;2023-03-29T01:38:20;6.23;;;3.10;;
20114;SDS011;10218;42.874;25.320;2023-03-29T01:40:51;5.90;;;3.50;;
20114;SDS011;10218;42.874;25.320;2023-03-29T01:46:30;5.77;;;3.30;;
20114;SDS011;10218;42.874;25.320;2023-03-29T01:49:15;6.50;;;3.00;;
20114;SDS011;10218;42.874;25.320;2023-03-29T01:54:27;5.70;;;3.07;;
20114;SDS011;10218;42.874;25.320;2023-03-29T01:57:07;5.27;;;3.07;;
20114;SDS011;10218;42.874;25.320;2023-03-29T01:59:37;10.47;;;2.93;;
20114;SDS011;10218;42.874;25.320;2023-03-29T02:02:10;11.07;;;3.50;;
20114;SDS011;10218;42.874;25.320;2023-03-29T02:04:43;6.73;;;3.57;;
20114;SDS011;10218;42.874;25.320;2023-03-29T02:07:16;4.33;;;3.20;;
20114;SDS011;10218;42.874;25.320;2023-03-29T02:09:48;5.57;;;3.27;;
20114;SDS011;10218;42.874;25.320;2023-03-29T02:12:18;7.13;;;3.43;;
20114;SDS011;10218;42.874;25.320;2023-03-29T02:14:45;4.63;;;3.40;;
20114;SDS011;10218;42.874;25.320;2023-03-29T02:17:16;5.83;;;3.50;;
20114;SDS011;10218;42.874;25.320;2023-03-29T02:19:51;8.07;;;3.20;;
20114;SDS011;10218;42.874;25.320;2023-03-29T02:22:45;5.37;;;3.50;;
20114;SDS011;10218;42.874;25.320;2023-03-29T02:25:20;6.47;;;3.40;;
20114;SDS011;10218;42.874;25.320;2023-03-29T02:27:48;7.80;;;3.60;;
20114;SDS011;10218;42.874;25.320;2023-03-29T02:30:16;6.70;;;3.80;;
20114;SDS011;10218;42.874;25.320;2023-03-29T02:35:23;8.57;;;3.70;;
20114;SDS011;10218;42.874;25.320;2023-03-29T02:38:01;6.33;;;3.90;;
20114;SDS011;10218;42.874;25.320;2023-03-29T02:40:31;8.40;;;4.03;;
20114;SDS011;10218;42.874;25.320;2023-03-29T02:43:02;5.97;;;3.80;;
20114;SDS011;10218;42.874;25.320;2023-03-29T02:45:30;5.87;;;3.70;;
20114;SDS011;10218;42.874;25.320;2023-03-29T02:48:01;7.63;;;4.10;;
20114;SDS011;10218;42.874;25.320;2023-03-29T02:50:36;8.13;;;4.30;;
20114;SDS011;10218;42.874;25.320;2023-03-29T02:53:09;11.50;;;3.97;;
20114;SDS011;10218;42.874;25.320;2023-03-29T02:55:41;8.80;;;4.40;;
20114;SDS011;10218;42.874;25.320;2023-03-29T02:58:12;8.27;;;4.10;;
20114;SDS011;10218;42.874;25.320;2023-03-29T03:00:42;5.67;;;4.20;;
20114;SDS011;10218;42.874;25.320;2023-03-29T03:03:11;7.53;;;4.43;;
20114;SDS011;10218;42.874;25.320;2023-03-29T03:05:41;9.57;;;4.53;;
20114;SDS011;10218;42.874;25.320;2023-03-29T03:08:09;8.00;;;4.03;;
20114;SDS011;10218;42.874;25.320;2023-03-29T03:10:36;10.70;;;4.30;;
20114;SDS011;10218;42.874;25.320;2023-03-29T03:13:04;7.47;;;4.33;;
20114;SDS011;10218;42.874;25.320;2023-03-29T03:15:31;7.83;;;3.90;;
20114;SDS011;10218;42.874;25.320;2023-03-29T03:18:02;6.50;;;4.13;;
20114;SDS011;10218;42.874;25.320;2023-03-29T03:20:29;13.07;;;4.43;;
20114;SDS011;10218;42.874;25.320;2023-03-29T03:22:56;5.40;;;3.90;;
20114;SDS011;10218;42.874;25.320;2023-03-29T03:25:24;18.43;;;5.03;;
20114;SDS011;10218;42.874;25.320;2023-03-29T03:27:52;8.43;;;4.90;;
20114;SDS011;10218;42.874;25.320;2023-03-29T03:30:20;7.00;;;4.47;;
20114;SDS011;10218;42.874;25.320;2023-03-29T03:32:48;6.27;;;4.67;;
20114;SDS011;10218;42.874;25.320;2023-03-29T03:35:17;8.33;;;4.80;;
20114;SDS011;10218;42.874;25.320;2023-03-29T03:37:44;6.97;;;4.57;;
20114;SDS011;10218;42.874;25.320;2023-03-29T03:40:12;7.93;;;4.53;;
20114;SDS011;10218;42.874;25.320;2023-03-29T03:42:39;10.40;;;5.07;;
20114;SDS011;10218;42.874;25.320;2023-03-29T03:45:07;7.20;;;4.63;;
20114;SDS011;10218;42.874;25.320;2023-03-29T03:47:38;6.77;;;4.67;;
20114;SDS011;10218;42.874;25.320;2023-03-29T03:50:09;8.70;;;4.67;;
20114;SDS011;10218;42.874;25.320;2023-03-29T03:52:37;9.20;;;4.93;;
20114;SDS011;10218;42.874;25.320;2023-03-29T03:55:05;7.50;;;4.90;;
20114;SDS011;10218;42.874;25.320;2023-03-29T03:57:34;9.93;;;5.83;;
20114;SDS011;10218;42.874;25.320;2023-03-29T04:00:04;8.57;;;5.03;;
20114;SDS011;10218;42.874;25.320;2023-03-29T04:02:46;9.63;;;5.07;;
20114;SDS011;10218;42.874;25.320;2023-03-29T04:05:14;12.57;;;5.10;;
20114;SDS011;10218;42.874;25.320;2023-03-29T04:07:42;9.67;;;4.90;;
20114;SDS011;10218;42.874;25.320;2023-03-29T04:10:11;7.53;;;5.17;;
20114;SDS011;10218;42.874;25.320;2023-03-29T04:12:38;7.33;;;5.10;;
20114;SDS011;10218;42.874;25.320;2023-03-29T04:15:05;7.97;;;5.17;;
20114;SDS011;10218;42.874;25.320;2023-03-29T04:17:34;8.60;;;5.13;;
20114;SDS011;10218;42.874;25.320;2023-03-29T04:20:02;7.77;;;5.33;;
20114;SDS011;10218;42.874;25.320;2023-03-29T04:22:37;9.50;;;5.80;;
20114;SDS011;10218;42.874;25.320;2023-03-29T04:25:05;12.47;;;5.70;;
20114;SDS011;10218;42.874;25.320;2023-03-29T04:27:35;12.03;;;5.83;;
20114;SDS011;10218;42.874;25.320;2023-03-29T04:30:03;8.93;;;6.03;;
20114;SDS011;10218;42.874;25.320;2023-03-29T04:32:33;12.87;;;6.83;;
20114;SDS011;10218;42.874;25.320;2023-03-29T04:35:00;9.57;;;5.77;;
20114;SDS011;10218;42.874;25.320;2023-03-29T04:37:28;9.03;;;5.77;;
20114;SDS011;10218;42.874;25.320;2023-03-29T04:39:56;16.63;;;6.13;;
20114;SDS011;10218;42.874;25.320;2023-03-29T04:42:27;9.60;;;5.90;;
20114;SDS011;10218;42.874;25.320;2023-03-29T04:44:55;8.10;;;6.07;;
20114;SDS011;10218;42.874;25.320;2023-03-29T04:47:24;9.23;;;6.50;;
20114;SDS011;10218;42.874;25.320;2023-03-29T04:49:55;13.70;;;6.73;;
20114;SDS011;10218;42.874;25.320;2023-03-29T04:52:23;12.43;;;7.43;;
20114;SDS011;10218;42.874;25.320;2023-03-29T04:54:50;13.90;;;7.10;;
20114;SDS011;10218;42.874;25.320;2023-03-29T04:57:18;9.93;;;6.27;;
20114;SDS011;10218;42.874;25.320;2023-03-29T04:59:45;9.07;;;6.00;;
20114;SDS011;10218;42.874;25.320;2023-03-29T05:02:13;8.93;;;5.57;;
20114;SDS011;10218;42.874;25.320;2023-03-29T05:04:41;8.63;;;6.20;;
20114;SDS011;10218;42.874;25.320;2023-03-29T05:07:09;7.93;;;5.73;;
20114;SDS011;10218;42.874;25.320;2023-03-29T05:09:38;9.60;;;5.70;;
20114;SDS011;10218;42.874;25.320;2023-03-29T05:12:07;12.73;;;5.93;;
20114;SDS011;10218;42.874;25.320;2023-03-29T05:14:35;12.20;;;5.63;;
20114;SDS011;10218;42.874;25.320;2023-03-29T05:17:02;9.83;;;5.87;;
20114;SDS011;10218;42.874;25.320;2023-03-29T05:19:31;10.60;;;5.70;;
20114;SDS011;10218;42.874;25.320;2023-03-29T05:21:59;9.70;;;5.93;;
20114;SDS011;10218;42.874;25.320;2023-03-29T05:24:26;10.00;;;5.70;;
20114;SDS011;10218;42.874;25.320;2023-03-29T05:26:54;10.77;;;6.20;;
20114;SDS011;10218;42.874;25.320;2023-03-29T05:29:22;11.13;;;6.40;;
20114;SDS011;10218;42.874;25.320;2023-03-29T05:31:50;10.00;;;5.80;;
20114;SDS011;10218;42.874;25.320;2023-03-29T05:34:18;11.07;;;6.00;;
20114;SDS011;10218;42.874;25.320;2023-03-29T05:36:45;10.07;;;5.50;;
20114;SDS011;10218;42.874;25.320;2023-03-29T05:39:14;11.03;;;6.23;;
20114;SDS011;10218;42.874;25.320;2023-03-29T05:41:42;7.67;;;5.47;;
20114;SDS011;10218;42.874;25.320;2023-03-29T05:44:10;8.67;;;5.03;;
20114;SDS011;10218;42.874;25.320;2023-03-29T05:46:38;7.80;;;4.97;;
20114;SDS011;10218;42.874;25.320;2023-03-29T05:49:05;7.70;;;4.70;;
20114;SDS011;10218;42.874;25.320;2023-03-29T05:51:32;6.90;;;4.60;;
20114;SDS011;10218;42.874;25.320;2023-03-29T05:54:00;7.80;;;5.07;;
20114;SDS011;10218;42.874;25.320;2023-03-29T05:56:28;9.10;;;5.03;;
20114;SDS011;10218;42.874;25.320;2023-03-29T05:58:55;8.47;;;4.70;;
20114;SDS011;10218;42.874;25.320;2023-03-29T06:01:24;6.30;;;4.60;;
20114;SDS011;10218;42.874;25.320;2023-03-29T06:03:52;6.57;;;4.03;;
20114;SDS011;10218;42.874;25.320;2023-03-29T06:06:19;6.20;;;4.43;;
20114;SDS011;10218;42.874;25.320;2023-03-29T06:08:47;5.63;;;4.07;;
20114;SDS011;10218;42.874;25.320;2023-03-29T06:11:14;5.20;;;3.73;;
20114;SDS011;10218;42.874;25.320;2023-03-29T06:13:45;8.33;;;4.60;;
20114;SDS011;10218;42.874;25.320;2023-03-29T06:16:12;5.23;;;3.90;;
20114;SDS011;10218;42.874;25.320;2023-03-29T06:18:39;5.70;;;3.93;;
20114;SDS011;10218;42.874;25.320;2023-03-29T06:21:07;7.73;;;4.13;;
20114;SDS011;10218;42.874;25.320;2023-03-29T06:23:35;6.40;;;4.07;;
20114;SDS011;10218;42.874;25.320;2023-03-29T06:26:02;6.90;;;4.40;;
20114;SDS011;10218;42.874;25.320;2023-03-29T06:28:31;6.43;;;3.73;;
20114;SDS011;10218;42.874;25.320;2023-03-29T06:30:58;8.23;;;4.03;;
20114;SDS011;10218;42.874;25.320;2023-03-29T06:33:29;7.07;;;4.33;;
20114;SDS011;10218;42.874;25.320;2023-03-29T06:35:59;8.30;;;4.30;;
20114;SDS011;10218;42.874;25.320;2023-03-29T06:38:26;7.40;;;4.50;;
20114;SDS011;10218;42.874;25.320;2023-03-29T06:41:05;8.63;;;4.70;;
20114;SDS011;10218;42.874;25.320;2023-03-29T06:43:34;10.30;;;4.80;;
20114;SDS011;10218;42.874;25.320;2023-03-29T06:46:03;9.30;;;4.37;;
20114;SDS011;10218;42.874;25.320;2023-03-29T06:48:35;6.80;;;4.67;;
20114;SDS011;10218;42.874;25.320;2023-03-29T06:51:02;8.20;;;4.37;;
20114;SDS011;10218;42.874;25.320;2023-03-29T06:53:30;7.33;;;4.20;;
20114;SDS011;10218;42.874;25.320;2023-03-29T06:55:57;7.67;;;3.93;;
20114;SDS011;10218;42.874;25.320;2023-03-29T06:58:26;7.70;;;5.00;;
20114;SDS011;10218;42.874;25.320;2023-03-29T07:00:58;6.10;;;3.87;;
20114;SDS011;10218;42.874;25.320;2023-03-29T07:03:27;5.57;;;4.10;;
20114;SDS011;10218;42.874;25.320;2023-03-29T07:05:59;9.03;;;4.50;;
20114;SDS011;10218;42.874;25.320;2023-03-29T07:08:29;12.30;;;3.83;;
20114;SDS011;10218;42.874;25.320;2023-03-29T07:10:57;8.67;;;4.40;;
20114;SDS011;10218;42.874;25.320;2023-03-29T07:13:27;5.30;;;3.73;;
20114;SDS011;10218;42.874;25.320;2023-03-29T07:15:55;13.67;;;4.90;;
20114;SDS011;10218;42.874;25.320;2023-03-29T07:18:23;7.07;;;3.90;;
20114;SDS011;10218;42.874;25.320;2023-03-29T07:20:50;9.50;;;3.73;;
20114;SDS011;10218;42.874;25.320;2023-03-29T07:23:17;7.20;;;3.97;;
20114;SDS011;10218;42.874;25.320;2023-03-29T07:25:45;7.43;;;3.60;;
20114;SDS011;10218;42.874;25.320;2023-03-29T07:28:12;6.53;;;3.60;;
20114;SDS011;10218;42.874;25.320;2023-03-29T07:30:39;6.50;;;4.00;;
20114;SDS011;10218;42.874;25.320;2023-03-29T07:33:07;4.83;;;3.17;;
20114;SDS011;10218;42.874;25.320;2023-03-29T07:35:36;6.37;;;3.90;;
20114;SDS011;10218;42.874;25.320;2023-03-29T07:38:04;5.87;;;3.47;;
20114;SDS011;10218;42.874;25.320;2023-03-29T07:40:31;4.47;;;3.20;;
20114;SDS011;10218;42.874;25.320;2023-03-29T07:43:07;8.40;;;3.53;;
20114;SDS011;10218;42.874;25.320;2023-03-29T07:45:36;5.30;;;3.60;;
20114;SDS011;10218;42.874;25.320;2023-03-29T07:48:06;7.87;;;3.20;;
20114;SDS011;10218;42.874;25.320;2023-03-29T07:50:36;6.40;;;3.80;;
20114;SDS011;10218;42.874;25.320;2023-03-29T07:53:03;4.60;;;3.60;;
20114;SDS011;10218;42.874;25.320;2023-03-29T07:55:31;8.40;;;4.10;;
20114;SDS011;10218;42.874;25.320;2023-03-29T07:57:58;5.50;;;3.30;;
20114;SDS011;10218;42.874;25.320;2023-03-29T08:00:26;11.03;;;3.27;;
20114;SDS011;10218;42.874;25.320;2023-03-29T08:02:55;6.23;;;3.60;;
20114;SDS011;10218;42.874;25.320;2023-03-29T08:05:23;5.23;;;3.77;;
20114;SDS011;10218;42.874;25.320;2023-03-29T08:07:56;5.07;;;3.30;;
20114;SDS011;10218;42.874;25.320;2023-03-29T08:10:23;5.70;;;3.50;;
20114;SDS011;10218;42.874;25.320;2023-03-29T08:12:52;5.23;;;3.70;;
20114;SDS011;10218;42.874;25.320;2023-03-29T08:15:20;5.80;;;3.60;;
20114;SDS011;10218;42.874;25.320;2023-03-29T08:17:47;5.70;;;3.73;;
20114;SDS011;10218;42.874;25.320;2023-03-29T08:20:14;4.87;;;3.40;;
20114;SDS011;10218;42.874;25.320;2023-03-29T08:22:42;4.57;;;3.27;;
20114;SDS011;10218;42.874;25.320;2023-03-29T08:25:11;5.93;;;4.03;;
20114;SDS011;10218;42.874;25.320;2023-03-29T08:27:39;6.50;;;3.80;;
20114;SDS011;10218;42.874;25.320;2023-03-29T08:30:08;9.90;;;3.70;;
20114;SDS011;10218;42.874;25.320;2023-03-29T08:32:36;9.00;;;3.67;;
20114;SDS011;10218;42.874;25.320;2023-03-29T08:35:04;8.03;;;4.47;;
20114;SDS011;10218;42.874;25.320;2023-03-29T08:37:34;9.03;;;4.60;;
20114;SDS011;10218;42.874;25.320;2023-03-29T08:40:02;7.13;;;3.90;;
20114;SDS011;10218;42.874;25.320;2023-03-29T08:45:07;5.60;;;3.87;;
20114;SDS011;10218;42.874;25.320;2023-03-29T08:50:20;8.97;;;3.77;;
20114;SDS011;10218;42.874;25.320;2023-03-29T08:52:58;6.47;;;4.00;;
20114;SDS011;10218;42.874;25.320;2023-03-29T08:55:37;5.03;;;3.30;;
20114;SDS011;10218;42.874;25.320;2023-03-29T08:58:11;6.13;;;3.57;;
20114;SDS011;10218;42.874;25.320;2023-03-29T09:00:46;14.50;;;3.97;;
20114;SDS011;10218;42.874;25.320;2023-03-29T09:03:22;6.93;;;3.07;;
20114;SDS011;10218;42.874;25.320;2023-03-29T09:05:54;7.27;;;3.17;;
20114;SDS011;10218;42.874;25.320;2023-03-29T09:08:25;6.07;;;3.23;;
20114;SDS011;10218;42.874;25.320;2023-03-29T09:19:04;5.97;;;2.90;;
20114;SDS011;10218;42.874;25.320;2023-03-29T09:25:16;6.27;;;3.30;;
20114;SDS011;10218;42.874;25.320;2023-03-29T09:27:28;8.70;;;3.27;;
20114;SDS011;10218;42.874;25.320;2023-03-29T09:30:20;8.93;;;3.50;;
20114;SDS011;10218;42.874;25.320;2023-03-29T09:32:53;17.10;;;3.80;;
20114;SDS011;10218;42.874;25.320;2023-03-29T09:35:36;7.50;;;3.40;;
20114;SDS011;10218;42.874;25.320;2023-03-29T09:38:09;5.90;;;3.30;;
20114;SDS011;10218;42.874;25.320;2023-03-29T09:43:32;6.80;;;3.63;;
20114;SDS011;10218;42.874;25.320;2023-03-29T09:46:05;5.03;;;3.20;;
20114;SDS011;10218;42.874;25.320;2023-03-29T09:48:42;5.10;;;3.23;;
20114;SDS011;10218;42.874;25.320;2023-03-29T09:51:12;5.23;;;3.43;;
20114;SDS011;10218;42.874;25.320;2023-03-29T09:53:40;7.17;;;4.20;;
20114;SDS011;10218;42.874;25.320;2023-03-29T09:56:07;4.03;;;3.30;;
20114;SDS011;10218;42.874;25.320;2023-03-29T09:58:35;8.20;;;3.47;;
20114;SDS011;10218;42.874;25.320;2023-03-29T10:01:03;5.97;;;3.73;;
20114;SDS011;10218;42.874;25.320;2023-03-29T10:03:38;3.90;;;3.00;;
20114;SDS011;10218;42.874;25.320;2023-03-29T10:06:05;8.57;;;3.40;;
20114;SDS011;10218;42.874;25.320;2023-03-29T10:08:38;8.03;;;4.97;;
20114;SDS011;10218;42.874;25.320;2023-03-29T10:11:11;7.00;;;3.93;;
20114;SDS011;10218;42.874;25.320;2023-03-29T10:13:50;6.53;;;4.07;;
20114;SDS011;10218;42.874;25.320;2023-03-29T10:16:31;6.67;;;3.97;;
20114;SDS011;10218;42.874;25.320;2023-03-29T10:21:49;5.60;;;3.60;;
20114;SDS011;10218;42.874;25.320;2023-03-29T10:24:22;6.97;;;3.60;;
20114;SDS011;10218;42.874;25.320;2023-03-29T10:26:52;6.10;;;3.67;;
20114;SDS011;10218;42.874;25.320;2023-03-29T10:29:23;5.83;;;3.30;;
20114;SDS011;10218;42.874;25.320;2023-03-29T10:31:51;6.60;;;4.13;;
20114;SDS011;10218;42.874;25.320;2023-03-29T10:34:19;7.57;;;4.20;;
20114;SDS011;10218;42.874;25.320;2023-03-29T10:36:56;6.93;;;4.10;;
20114;SDS011;10218;42.874;25.320;2023-03-29T10:39:31;11.67;;;5.43;;
20114;SDS011;10218;42.874;25.320;2023-03-29T10:42:00;12.93;;;5.57;;
20114;SDS011;10218;42.874;25.320;2023-03-29T10:44:30;7.03;;;3.77;;
20114;SDS011;10218;42.874;25.320;2023-03-29T10:47:16;7.43;;;4.00;;
20114;SDS011;10218;42.874;25.320;2023-03-29T10:49:49;6.07;;;3.70;;
20114;SDS011;10218;42.874;25.320;2023-03-29T10:52:22;5.70;;;3.60;;
20114;SDS011;10218;42.874;25.320;2023-03-29T10:54:50;8.77;;;3.83;;
20114;SDS011;10218;42.874;25.320;2023-03-29T10:57:29;5.60;;;3.60;;
20114;SDS011;10218;42.874;25.320;2023-03-29T11:06:21;5.00;;;3.70;;
20114;SDS011;10218;42.874;25.320;2023-03-29T11:34:11;6.20;;;4.07;;
20114;SDS011;10218;42.874;25.320;2023-03-29T11:37:02;8.20;;;3.97;;
20114;SDS011;10218;42.874;25.320;2023-03-29T11:39:59;10.13;;;4.70;;
20114;SDS011;10218;42.874;25.320;2023-03-29T11:42:44;5.90;;;3.90;;
20114;SDS011;10218;42.874;25.320;2023-03-29T11:45:16;6.17;;;3.60;;
20114;SDS011;10218;42.874;25.320;2023-03-29T11:47:54;6.13;;;3.40;;
20114;SDS011;10218;42.874;25.320;2023-03-29T11:50:26;6.40;;;3.50;;
20114;SDS011;10218;42.874;25.320;2023-03-29T11:53:11;5.83;;;3.77;;
20114;SDS011;10218;42.874;25.320;2023-03-29T11:55:43;6.23;;;3.77;;
20114;SDS011;10218;42.874;25.320;2023-03-29T11:58:14;10.73;;;5.00;;
20114;SDS011;10218;42.874;25.320;2023-03-29T12:00:44;7.03;;;3.30;;
20114;SDS011;10218;42.874;25.320;2023-03-29T12:05:59;10.83;;;4.20;;
20114;SDS011;10218;42.874;25.320;2023-03-29T12:08:37;7.43;;;3.93;;
20114;SDS011;10218;42.874;25.320;2023-03-29T12:11:15;18.53;;;6.80;;
20114;SDS011;10218;42.874;25.320;2023-03-29T12:13:44;8.83;;;5.70;;
20114;SDS011;10218;42.874;25.320;2023-03-29T12:16:32;6.07;;;3.33;;
20114;SDS011;10218;42.874;25.320;2023-03-29T12:19:13;4.93;;;3.30;;
20114;SDS011;10218;42.874;25.320;2023-03-29T12:21:55;5.80;;;3.20;;
20114;SDS011;10218;42.874;25.320;2023-03-29T12:24:26;12.87;;;3.80;;
20114;SDS011;10218;42.874;25.320;2023-03-29T12:30:11;10.10;;;4.17;;
20114;SDS011;10218;42.874;25.320;2023-03-29T12:38:41;7.47;;;4.03;;
20114;SDS011;10218;42.874;25.320;2023-03-29T12:41:15;5.43;;;3.40;;
20114;SDS011;10218;42.874;25.320;2023-03-29T12:43:46;6.27;;;3.80;;
20114;SDS011;10218;42.874;25.320;2023-03-29T12:46:22;5.03;;;3.13;;
20114;SDS011;10218;42.874;25.320;2023-03-29T12:48:55;4.93;;;2.93;;
20114;SDS011;10218;42.874;25.320;2023-03-29T12:51:31;7.20;;;3.37;;
20114;SDS011;10218;42.874;25.320;2023-03-29T12:54:17;6.47;;;3.70;;
20114;SDS011;10218;42.874;25.320;2023-03-29T12:59:38;10.40;;;4.23;;
20114;SDS011;10218;42.874;25.320;2023-03-29T13:04:50;7.13;;;2.93;;
20114;SDS011;10218;42.874;25.320;2023-03-29T13:09:50;7.40;;;3.73;;
20114;SDS011;10218;42.874;25.320;2023-03-29T13:14:59;13.33;;;3.57;;
20114;SDS011;10218;42.874;25.320;2023-03-29T13:39:40;16.53;;;9.00;;
20114;SDS011;10218;42.874;25.320;2023-03-29T13:42:36;4.60;;;3.10;;
20114;SDS011;10218;42.874;25.320;2023-03-29T13:45:13;5.60;;;4.13;;
20114;SDS011;10218;42.874;25.320;2023-03-29T13:47:43;10.10;;;4.07;;
20114;SDS011;10218;42.874;25.320;2023-03-29T13:50:18;5.07;;;3.50;;
20114;SDS011;10218;42.874;25.320;2023-03-29T13:53:00;6.20;;;3.30;;
20114;SDS011;10218;42.874;25.320;2023-03-29T13:55:30;6.90;;;3.43;;
20114;SDS011;10218;42.874;25.320;2023-03-29T14:01:18;5.60;;;3.50;;
20114;SDS011;10218;42.874;25.320;2023-03-29T14:03:49;5.13;;;3.53;;
20114;SDS011;10218;42.874;25.320;2023-03-29T14:06:26;5.60;;;3.60;;
20114;SDS011;10218;42.874;25.320;2023-03-29T14:09:01;5.13;;;3.27;;
20114;SDS011;10218;42.874;25.320;2023-03-29T14:11:31;8.60;;;3.10;;
20114;SDS011;10218;42.874;25.320;2023-03-29T14:14:00;5.07;;;3.00;;
20114;SDS011;10218;42.874;25.320;2023-03-29T14:16:31;5.47;;;3.20;;
20114;SDS011;10218;42.874;25.320;2023-03-29T14:19:02;8.67;;;3.13;;
20114;SDS011;10218;42.874;25.320;2023-03-29T14:21:30;7.43;;;2.97;;
20114;SDS011;10218;42.874;25.320;2023-03-29T14:23:59;9.03;;;3.60;;
20114;SDS011;10218;42.874;25.320;2023-03-29T14:26:31;8.03;;;2.97;;
20114;SDS011;10218;42.874;25.320;2023-03-29T14:29:01;5.17;;;2.80;;
20114;SDS011;10218;42.874;25.320;2023-03-29T14:31:29;5.63;;;3.10;;
20114;SDS011;10218;42.874;25.320;2023-03-29T14:33:59;3.57;;;2.50;;
20114;SDS011;10218;42.874;25.320;2023-03-29T14:36:28;5.97;;;3.03;;
20114;SDS011;10218;42.874;25.320;2023-03-29T14:41:37;8.13;;;4.33;;
20114;SDS011;10218;42.874;25.320;2023-03-29T14:44:05;10.87;;;5.27;;
20114;SDS011;10218;42.874;25.320;2023-03-29T14:46:33;11.40;;;6.13;;
20114;SDS011;10218;42.874;25.320;2023-03-29T14:49:01;7.83;;;3.57;;
20114;SDS011;10218;42.874;25.320;2023-03-29T14:51:30;5.93;;;3.67;;
20114;SDS011;10218;42.874;25.320;2023-03-29T14:53:58;8.70;;;3.83;;
20114;SDS011;10218;42.874;25.320;2023-03-29T14:56:28;6.87;;;3.70;;
20114;SDS011;10218;42.874;25.320;2023-03-29T14:58:59;6.00;;;4.00;;
20114;SDS011;10218;42.874;25.320;2023-03-29T15:01:29;6.60;;;4.17;;
20114;SDS011;10218;42.874;25.320;2023-03-29T15:04:09;9.60;;;4.47;;
20114;SDS011;10218;42.874;25.320;2023-03-29T15:06:38;9.17;;;4.40;;
20114;SDS011;10218;42.874;25.320;2023-03-29T15:09:09;13.00;;;7.13;;
20114;SDS011;10218;42.874;25.320;2023-03-29T15:11:48;9.47;;;5.03;;
20114;SDS011;10218;42.874;25.320;2023-03-29T15:14:18;7.03;;;4.00;;
20114;SDS011;10218;42.874;25.320;2023-03-29T15:16:47;7.60;;;5.17;;
20114;SDS011;10218;42.874;25.320;2023-03-29T15:19:18;9.20;;;4.03;;
20114;SDS011;10218;42.874;25.320;2023-03-29T15:21:48;5.47;;;3.60;;
20114;SDS011;10218;42.874;25.320;2023-03-29T15:24:26;6.10;;;3.87;;
20114;SDS011;10218;42.874;25.320;2023-03-29T15:27:02;11.23;;;5.07;;
20114;SDS011;10218;42.874;25.320;2023-03-29T15:29:40;7.83;;;3.80;;
20114;SDS011;10218;42.874;25.320;2023-03-29T15:32:18;9.70;;;4.60;;
20114;SDS011;10218;42.874;25.320;2023-03-29T15:34:59;9.40;;;3.50;;
20114;SDS011;10218;42.874;25.320;2023-03-29T15:37:27;5.70;;;3.10;;
20114;SDS011;10218;42.874;25.320;2023-03-29T15:39:54;6.83;;;3.30;;
20114;SDS011;10218;42.874;25.320;2023-03-29T15:42:22;4.33;;;3.17;;
20114;SDS011;10218;42.874;25.320;2023-03-29T15:44:53;8.70;;;3.57;;
20114;SDS011;10218;42.874;25.320;2023-03-29T15:47:21;8.50;;;4.30;;
20114;SDS011;10218;42.874;25.320;2023-03-29T15:49:49;12.33;;;8.97;;
20114;SDS011;10218;42.874;25.320;2023-03-29T15:52:17;6.83;;;4.33;;
20114;SDS011;10218;42.874;25.320;2023-03-29T15:54:44;5.60;;;3.90;;
20114;SDS011;10218;42.874;25.320;2023-03-29T15:57:12;11.13;;;4.40;;
20114;SDS011;10218;42.874;25.320;2023-03-29T15:59:41;8.23;;;5.13;;
20114;SDS011;10218;42.874;25.320;2023-03-29T16:02:11;6.13;;;3.87;;
20114;SDS011;10218;42.874;25.320;2023-03-29T16:04:42;9.93;;;4.63;;
20114;SDS011;10218;42.874;25.320;2023-03-29T16:07:11;10.67;;;5.20;;
20114;SDS011;10218;42.874;25.320;2023-03-29T16:09:40;5.57;;;4.00;;
20114;SDS011;10218;42.874;25.320;2023-03-29T16:12:08;7.53;;;4.00;;
20114;SDS011;10218;42.874;25.320;2023-03-29T16:14:36;13.37;;;4.90;;
20114;SDS011;10218;42.874;25.320;2023-03-29T16:17:04;8.80;;;5.70;;
20114;SDS011;10218;42.874;25.320;2023-03-29T16:19:31;9.20;;;5.17;;
20114;SDS011;10218;42.874;25.320;2023-03-29T16:21:59;9.07;;;5.30;;
20114;SDS011;10218;42.874;25.320;2023-03-29T16:24:30;11.50;;;5.17;;
20114;SDS011;10218;42.874;25.320;2023-03-29T16:26:58;7.70;;;4.30;;
20114;SDS011;10218;42.874;25.320;2023-03-29T16:29:27;9.23;;;4.97;;
20114;SDS011;10218;42.874;25.320;2023-03-29T16:31:54;9.63;;;5.30;;
20114;SDS011;10218;42.874;25.320;2023-03-29T16:34:22;8.03;;;4.83;;
20114;SDS011;10218;42.874;25.320;2023-03-29T16:36:49;7.93;;;4.80;;
20114;SDS011;10218;42.874;25.320;2023-03-29T16:39:16;7.40;;;4.40;;
20114;SDS011;10218;42.874;25.320;2023-03-29T16:41:44;9.90;;;6.53;;
20114;SDS011;10218;42.874;25.320;2023-03-29T16:44:17;10.80;;;4.80;;
20114;SDS011;10218;42.874;25.320;2023-03-29T16:46:48;12.70;;;5.07;;
20114;SDS011;10218;42.874;25.320;2023-03-29T16:49:16;11.90;;;6.13;;
20114;SDS011;10218;42.874;25.320;2023-03-29T16:51:46;15.97;;;7.77;;
20114;SDS011;10218;42.874;25.320;2023-03-29T16:54:14;14.10;;;7.17;;
20114;SDS011;10218;42.874;25.320;2023-03-29T16:56:45;13.60;;;5.83;;
20114;SDS011;10218;42.874;25.320;2023-03-29T16:59:12;10.47;;;5.93;;
20114;SDS011;10218;42.874;25.320;2023-03-29T17:01:39;12.33;;;6.50;;
20114;SDS011;10218;42.874;25.320;2023-03-29T17:04:06;12.07;;;6.90;;
20114;SDS011;10218;42.874;25.320;2023-03-29T17:06:34;12.17;;;6.63;;
20114;SDS011;10218;42.874;25.320;2023-03-29T17:09:01;16.60;;;7.10;;